Time;durP1;ratioP1;P1;durP2;ratioP2;P2;SDS_P1;SDS_P2;PMS_P1;PMS_P2;Temp;Humidity;BMP_temperature;BMP_pressure;BME280_temperature;BME280_humidity;BME280_pressure;Samples;Min_cycle;Max_cycle;Signal;HPM_P1;HPM_P2
2022/11/02 00:00:28;;;;;;;11.05;3.17;;;;;;;;;;5022080;28;20414;-91
2022/11/02 00:02:55;;;;;;;12.63;3.37;;;;;;;;;;5020559;28;20514;-91
2022/11/02 00:05:23;;;;;;;13.60;3.33;;;;;;;;;;5019872;28;20475;-91
2022/11/02 00:07:53;;;;;;;10.38;2.97;;;;;;;;;;5003073;28;20407;-91
2022/11/02 00:10:20;;;;;;;10.70;2.88;;;;;;;;;;5005905;28;20419;-90
2022/11/02 00:12:46;;;;;;;11.30;3.43;;;;;;;;;;5018637;28;20410;-91
2022/11/02 00:15:12;;;;;;;13.23;3.05;;;;;;;;;;5017632;28;20422;-90
2022/11/02 00:17:43;;;;;;;14.55;3.08;;;;;;;;;;5017883;28;20411;-91
2022/11/02 00:20:10;;;;;;;9.35;2.88;;;;;;;;;;5017145;28;20411;-90
2022/11/02 00:22:36;;;;;;;11.93;3.20;;;;;;;;;;5017610;28;20403;-91
2022/11/02 00:25:03;;;;;;;12.13;2.90;;;;;;;;;;5000817;28;20514;-91
2022/11/02 00:27:30;;;;;;;13.75;3.30;;;;;;;;;;4999726;28;20408;-81
2022/11/02 00:29:56;;;;;;;13.23;3.00;;;;;;;;;;5014170;28;20442;-81
2022/11/02 00:32:22;;;;;;;13.18;3.28;;;;;;;;;;5013352;28;20427;-81
2022/11/02 00:34:48;;;;;;;12.05;2.90;;;;;;;;;;4998902;28;20443;-80
2022/11/02 00:37:14;;;;;;;12.68;2.92;;;;;;;;;;5014926;28;20485;-80
2022/11/02 00:39:40;;;;;;;11.10;2.80;;;;;;;;;;4996399;28;20449;-80
2022/11/02 00:42:06;;;;;;;7.93;2.40;;;;;;;;;;4997017;28;20454;-80
2022/11/02 00:44:32;;;;;;;12.35;2.90;;;;;;;;;;4997522;28;20419;-82
2022/11/02 00:46:58;;;;;;;12.60;2.97;;;;;;;;;;5011402;28;20434;-82
2022/11/02 00:49:24;;;;;;;12.80;3.35;;;;;;;;;;5013224;28;20510;-81
2022/11/02 00:51:50;;;;;;;13.45;3.08;;;;;;;;;;4996240;28;20435;-82
2022/11/02 00:54:16;;;;;;;10.73;2.85;;;;;;;;;;5013618;28;20460;-82
2022/11/02 00:56:42;;;;;;;12.50;3.17;;;;;;;;;;5014771;28;20430;-82
2022/11/02 00:59:08;;;;;;;12.30;2.97;;;;;;;;;;5015082;28;20430;-82
2022/11/02 01:01:34;;;;;;;11.90;3.30;;;;;;;;;;4997338;28;20462;-83
2022/11/02 01:04:00;;;;;;;11.27;2.97;;;;;;;;;;5014541;28;20200;-82
2022/11/02 01:06:26;;;;;;;10.53;2.50;;;;;;;;;;5014624;28;20213;-82
2022/11/02 01:08:53;;;;;;;8.20;2.17;;;;;;;;;;5013033;28;20189;-82
2022/11/02 01:11:21;;;;;;;11.67;2.93;;;;;;;;;;5014929;28;20186;-82
2022/11/02 01:13:47;;;;;;;8.67;2.60;;;;;;;;;;5013249;28;20320;-82
2022/11/02 01:16:13;;;;;;;7.97;2.40;;;;;;;;;;5014527;28;20185;-83
2022/11/02 01:18:40;;;;;;;8.70;2.10;;;;;;;;;;4989544;28;20220;-80
2022/11/02 01:21:06;;;;;;;9.30;2.30;;;;;;;;;;5014449;28;20186;-80
2022/11/02 01:23:33;;;;;;;8.87;2.70;;;;;;;;;;5010883;28;20196;-80
2022/11/02 01:26:02;;;;;;;11.23;2.60;;;;;;;;;;5013217;28;20205;-80
2022/11/02 01:28:28;;;;;;;13.17;2.97;;;;;;;;;;5014714;28;20220;-80
2022/11/02 01:30:54;;;;;;;9.00;2.57;;;;;;;;;;4997195;28;20189;-80
2022/11/02 01:33:20;;;;;;;10.17;2.50;;;;;;;;;;5013496;28;20196;-79
2022/11/02 01:35:46;;;;;;;9.80;2.77;;;;;;;;;;4997561;28;20228;-78
2022/11/02 01:38:12;;;;;;;8.90;2.50;;;;;;;;;;5008310;28;20189;-78
2022/11/02 01:40:39;;;;;;;9.70;2.63;;;;;;;;;;5006690;28;20385;-78
2022/11/02 01:43:18;;;;;;;12.33;2.67;;;;;;;;;;5019840;28;20208;-78
2022/11/02 01:45:44;;;;;;;11.80;2.43;;;;;;;;;;4997528;28;20307;-78
2022/11/02 01:48:10;;;;;;;13.60;2.83;;;;;;;;;;4996413;28;20248;-77
2022/11/02 01:50:36;;;;;;;14.67;2.80;;;;;;;;;;5013053;28;20213;-82
2022/11/02 01:53:02;;;;;;;9.07;2.20;;;;;;;;;;4997121;28;20245;-82
2022/11/02 01:55:30;;;;;;;8.30;2.47;;;;;;;;;;5014531;28;20254;-83
2022/11/02 01:58:02;;;;;;;6.25;1.70;;;;;;;;;;5011349;28;20431;-81
2022/11/02 02:00:28;;;;;;;6.18;1.58;;;;;;;;;;5013462;28;20437;-82
2022/11/02 02:02:56;;;;;;;5.57;1.40;;;;;;;;;;5012724;28;20184;-82
2022/11/02 02:05:23;;;;;;;4.27;1.27;;;;;;;;;;5014237;28;20224;-83
2022/11/02 02:07:49;;;;;;;5.43;1.27;;;;;;;;;;5016151;28;20184;-82
2022/11/02 02:10:16;;;;;;;3.67;1.30;;;;;;;;;;5028912;28;20324;-82
2022/11/02 02:12:43;;;;;;;7.37;1.77;;;;;;;;;;5012915;28;20280;-82
2022/11/02 02:15:09;;;;;;;3.63;1.30;;;;;;;;;;5013381;28;20221;-82
2022/11/02 02:17:35;;;;;;;5.50;1.37;;;;;;;;;;5004751;28;20224;-83
2022/11/02 02:20:07;;;;;;;2.97;1.10;;;;;;;;;;5013076;28;20184;-82
2022/11/02 02:22:50;;;;;;;3.40;1.23;;;;;;;;;;5011329;28;20195;-82
2022/11/02 02:25:26;;;;;;;4.33;1.30;;;;;;;;;;5007493;28;20231;-82
2022/11/02 02:28:10;;;;;;;3.73;1.07;;;;;;;;;;5012823;28;20203;-83
2022/11/02 02:30:40;;;;;;;6.03;1.40;;;;;;;;;;5005846;28;20192;-78
2022/11/02 02:33:11;;;;;;;3.73;1.30;;;;;;;;;;5011952;28;20178;-80
2022/11/02 02:35:37;;;;;;;6.00;1.47;;;;;;;;;;5008486;28;20245;-80
2022/11/02 02:38:05;;;;;;;6.23;1.70;;;;;;;;;;5006119;28;20197;-80
2022/11/02 02:40:34;;;;;;;5.63;1.63;;;;;;;;;;5012176;28;20443;-90
2022/11/02 02:43:07;;;;;;;4.63;1.27;;;;;;;;;;5014076;28;20184;-90
2022/11/02 02:45:43;;;;;;;4.68;1.48;;;;;;;;;;5013672;28;20434;-90
2022/11/02 02:48:17;;;;;;;6.85;1.77;;;;;;;;;;5013886;28;20498;-90
2022/11/02 02:50:47;;;;;;;7.00;1.88;;;;;;;;;;5013540;28;20407;-90
2022/11/02 02:53:14;;;;;;;4.27;1.60;;;;;;;;;;5014988;28;20173;-91
2022/11/02 02:55:43;;;;;;;3.37;1.33;;;;;;;;;;5013848;28;20182;-91
2022/11/02 02:58:12;;;;;;;6.23;1.53;;;;;;;;;;5012929;28;20201;-80
2022/11/02 03:00:39;;;;;;;7.07;1.90;;;;;;;;;;5013182;28;20439;-80
2022/11/02 03:03:05;;;;;;;5.23;1.53;;;;;;;;;;5012166;28;20192;-80
2022/11/02 03:05:35;;;;;;;5.20;1.53;;;;;;;;;;4995395;28;20220;-80
2022/11/02 03:08:16;;;;;;;5.80;1.57;;;;;;;;;;4999745;28;20189;-80
2022/11/02 03:10:46;;;;;;;6.37;1.87;;;;;;;;;;5012276;28;20715;-80
2022/11/02 03:13:29;;;;;;;6.80;1.60;;;;;;;;;;4999783;28;20452;-78
2022/11/02 03:16:01;;;;;;;7.47;1.80;;;;;;;;;;4994477;28;20188;-78
2022/11/02 03:18:42;;;;;;;7.47;1.67;;;;;;;;;;5009475;28;20181;-77
2022/11/02 03:21:27;;;;;;;8.13;2.20;;;;;;;;;;5012128;28;20431;-79
2022/11/02 03:23:58;;;;;;;8.15;2.30;;;;;;;;;;5011796;28;20500;-78
2022/11/02 03:26:24;;;;;;;7.75;2.10;;;;;;;;;;5012268;28;20441;-76
2022/11/02 03:29:02;;;;;;;9.67;2.27;;;;;;;;;;5012342;28;20197;-76
2022/11/02 03:31:34;;;;;;;10.85;2.50;;;;;;;;;;5011975;28;20430;-83
2022/11/02 03:34:03;;;;;;;9.85;2.50;;;;;;;;;;5013503;28;20458;-83
2022/11/02 03:36:33;;;;;;;9.63;2.40;;;;;;;;;;5016306;28;20196;-82
2022/11/02 03:39:03;;;;;;;12.75;2.42;;;;;;;;;;5014980;28;20427;-83
2022/11/02 03:41:30;;;;;;;8.90;2.47;;;;;;;;;;5016085;28;20447;-80
2022/11/02 03:43:59;;;;;;;7.60;2.17;;;;;;;;;;5015837;28;20186;-82
2022/11/02 03:46:26;;;;;;;11.17;2.40;;;;;;;;;;5015516;28;20215;-82
2022/11/02 03:48:52;;;;;;;11.63;2.90;;;;;;;;;;5010711;28;20514;-79
2022/11/02 03:51:20;;;;;;;10.33;2.30;;;;;;;;;;4999067;28;20201;-79
2022/11/02 03:53:58;;;;;;;11.00;2.57;;;;;;;;;;5015436;28;20174;-79
2022/11/02 03:56:42;;;;;;;11.60;2.93;;;;;;;;;;4998100;28;20205;-79
2022/11/02 03:59:08;;;;;;;10.03;2.27;;;;;;;;;;5017687;28;20177;-79
2022/11/02 04:01:42;;;;;;;11.65;2.90;;;;;;;;;;4994761;28;20536;-80
2022/11/02 04:04:08;;;;;;;11.37;2.73;;;;;;;;;;5016994;28;20183;-83
2022/11/02 04:06:35;;;;;;;13.77;2.70;;;;;;;;;;5016816;28;20201;-81
2022/11/02 04:09:01;;;;;;;11.27;2.73;;;;;;;;;;5015411;28;20182;-82
2022/11/02 04:19:41;;;;;;;8.63;2.57;;;;;;;;;;5029744;28;20189;-81
2022/11/02 04:27:36;;;;;;;10.02;3.10;;;;;;;;;;5012760;28;20453;-79
2022/11/02 04:30:03;;;;;;;14.13;3.00;;;;;;;;;;5014802;28;20213;-79
2022/11/02 04:35:14;;;;;;;15.18;3.22;;;;;;;;;;5011706;28;20442;-80
2022/11/02 04:40:25;;;;;;;14.40;3.35;;;;;;;;;;5030878;28;20433;-91
2022/11/02 04:42:51;;;;;;;16.95;3.40;;;;;;;;;;5016720;28;20415;-91
2022/11/02 04:45:17;;;;;;;15.60;3.50;;;;;;;;;;5016524;28;20438;-91
2022/11/02 04:47:43;;;;;;;14.00;3.25;;;;;;;;;;5016064;28;20937;-91
2022/11/02 04:50:09;;;;;;;13.68;3.13;;;;;;;;;;5031774;28;20448;-91
2022/11/02 04:52:35;;;;;;;13.93;3.38;;;;;;;;;;5015492;28;20407;-91
2022/11/02 04:55:01;;;;;;;12.43;3.13;;;;;;;;;;5014908;28;20417;-83
2022/11/02 04:57:27;;;;;;;14.13;3.50;;;;;;;;;;4997435;28;20478;-82
2022/11/02 04:59:53;;;;;;;13.85;3.45;;;;;;;;;;4993970;28;20425;-82
2022/11/02 05:02:19;;;;;;;12.52;3.35;;;;;;;;;;5029805;28;20434;-82
2022/11/02 05:04:45;;;;;;;15.70;3.67;;;;;;;;;;5014156;28;20403;-82
2022/11/02 05:07:11;;;;;;;14.35;3.55;;;;;;;;;;5013622;28;20422;-77
2022/11/02 05:09:37;;;;;;;12.65;3.30;;;;;;;;;;5013428;28;20474;-77
2022/11/02 05:12:06;;;;;;;13.20;3.72;;;;;;;;;;5001846;28;20411;-91
2022/11/02 05:14:32;;;;;;;14.13;3.40;;;;;;;;;;5001037;28;20427;-91
2022/11/02 05:16:58;;;;;;;12.80;3.40;;;;;;;;;;5015315;28;20419;-91
2022/11/02 05:19:24;;;;;;;13.57;3.38;;;;;;;;;;5015206;28;20415;-90
2022/11/02 05:21:50;;;;;;;12.82;3.42;;;;;;;;;;5016235;28;20406;-90
2022/11/02 05:24:16;;;;;;;16.27;3.72;;;;;;;;;;5016440;28;20414;-90
2022/11/02 05:26:42;;;;;;;14.10;3.35;;;;;;;;;;4999788;28;20442;-80
2022/11/02 05:29:08;;;;;;;11.20;3.20;;;;;;;;;;5029180;28;20462;-79
2022/11/02 05:31:34;;;;;;;12.32;3.60;;;;;;;;;;5012656;28;20429;-79
2022/11/02 05:34:00;;;;;;;11.87;3.40;;;;;;;;;;5015907;28;20415;-79
2022/11/02 05:36:26;;;;;;;13.13;3.57;;;;;;;;;;4996770;28;20415;-80
2022/11/02 05:38:53;;;;;;;13.52;3.47;;;;;;;;;;4996595;28;20431;-80
2022/11/02 05:41:19;;;;;;;15.02;3.42;;;;;;;;;;5012607;28;20486;-80
2022/11/02 05:43:45;;;;;;;14.18;3.40;;;;;;;;;;5012517;28;20609;-80
2022/11/02 05:46:14;;;;;;;13.80;3.60;;;;;;;;;;5012459;28;20442;-80
2022/11/02 05:48:40;;;;;;;12.10;3.40;;;;;;;;;;5013318;28;20479;-79
2022/11/02 05:51:07;;;;;;;14.38;3.40;;;;;;;;;;4996339;28;20422;-80
2022/11/02 05:53:37;;;;;;;15.73;3.88;;;;;;;;;;5025778;22;20473;-80
2022/11/02 05:56:04;;;;;;;16.02;3.45;;;;;;;;;;4984040;28;20439;-80
2022/11/02 05:58:30;;;;;;;13.63;3.58;;;;;;;;;;4989578;28;20424;-80
2022/11/02 06:00:59;;;;;;;12.80;3.55;;;;;;;;;;4993207;28;20424;-89
2022/11/02 06:03:25;;;;;;;15.27;3.70;;;;;;;;;;4991934;28;20516;-89
2022/11/02 06:06:01;;;;;;;12.40;3.33;;;;;;;;;;4992541;28;20437;-89
2022/11/02 06:08:28;;;;;;;14.33;3.50;;;;;;;;;;5008365;28;20413;-89
2022/11/02 06:10:54;;;;;;;15.90;3.55;;;;;;;;;;4993964;28;20420;-89
2022/11/02 06:13:20;;;;;;;14.45;3.35;;;;;;;;;;4992240;28;20413;-88
2022/11/02 06:15:46;;;;;;;14.17;3.60;;;;;;;;;;4988619;28;20425;-90
2022/11/02 06:18:12;;;;;;;14.07;3.57;;;;;;;;;;5003108;28;20425;-80
2022/11/02 06:20:38;;;;;;;15.20;3.72;;;;;;;;;;4975145;28;20441;-80
2022/11/02 06:23:04;;;;;;;12.85;3.35;;;;;;;;;;4991006;28;20435;-80
2022/11/02 06:25:30;;;;;;;13.63;3.65;;;;;;;;;;4975802;28;20467;-80
2022/11/02 06:27:56;;;;;;;13.30;3.50;;;;;;;;;;4992205;28;20441;-80
2022/11/02 06:30:22;;;;;;;14.03;3.30;;;;;;;;;;4992303;28;20418;-80
2022/11/02 06:32:49;;;;;;;14.10;3.38;;;;;;;;;;4992180;28;20495;-80
2022/11/02 06:35:19;;;;;;;12.82;3.22;;;;;;;;;;4992243;28;20568;-81
2022/11/02 06:37:46;;;;;;;13.18;3.47;;;;;;;;;;4990157;28;20408;-81
2022/11/02 06:40:12;;;;;;;13.48;3.25;;;;;;;;;;4976247;28;20421;-81
2022/11/02 06:42:39;;;;;;;16.75;3.45;;;;;;;;;;4991832;28;20491;-81
2022/11/02 06:45:05;;;;;;;12.63;3.50;;;;;;;;;;4992122;28;20436;-81
2022/11/02 06:47:32;;;;;;;14.10;3.35;;;;;;;;;;4976244;28;20455;-81
2022/11/02 06:49:58;;;;;;;12.73;3.28;;;;;;;;;;4992030;28;20423;-80
2022/11/02 06:52:25;;;;;;;13.63;3.20;;;;;;;;;;4975732;28;20504;-80
2022/11/02 06:54:51;;;;;;;12.45;3.20;;;;;;;;;;4991997;28;20441;-80
2022/11/02 06:57:17;;;;;;;14.80;3.37;;;;;;;;;;4992676;28;20439;-80
2022/11/02 06:59:43;;;;;;;11.95;3.10;;;;;;;;;;4992665;28;20412;-80
2022/11/02 07:02:09;;;;;;;14.77;3.13;;;;;;;;;;4992401;28;20401;-80
2022/11/02 07:04:35;;;;;;;13.02;2.97;;;;;;;;;;4992498;28;20412;-80
2022/11/02 07:07:01;;;;;;;13.87;3.20;;;;;;;;;;4993220;28;20428;-81
2022/11/02 07:09:27;;;;;;;15.40;3.40;;;;;;;;;;4996755;28;20408;-81
2022/11/02 07:11:53;;;;;;;12.15;3.17;;;;;;;;;;4996659;28;20411;-81
2022/11/02 07:14:19;;;;;;;12.63;3.30;;;;;;;;;;4997149;28;20419;-81
2022/11/02 07:16:45;;;;;;;13.87;3.30;;;;;;;;;;4996718;28;20412;-81
2022/11/02 07:19:11;;;;;;;11.98;3.20;;;;;;;;;;4996258;28;20487;-81
2022/11/02 07:21:37;;;;;;;14.07;3.20;;;;;;;;;;4980591;28;20452;-81
2022/11/02 07:24:03;;;;;;;13.88;3.50;;;;;;;;;;4996175;28;20459;-77
2022/11/02 07:26:29;;;;;;;14.43;3.40;;;;;;;;;;4995956;28;20440;-77
2022/11/02 07:28:55;;;;;;;14.05;3.67;;;;;;;;;;4996911;28;20427;-77
2022/11/02 07:31:21;;;;;;;12.33;3.27;;;;;;;;;;5009206;28;20421;-77
2022/11/02 07:33:47;;;;;;;13.68;3.28;;;;;;;;;;4993145;28;20465;-77
2022/11/02 07:36:13;;;;;;;15.07;3.63;;;;;;;;;;4993119;28;20426;-77
2022/11/02 07:38:39;;;;;;;17.15;3.55;;;;;;;;;;4993272;28;20414;-77
2022/11/02 07:41:05;;;;;;;15.27;3.40;;;;;;;;;;4977421;28;20550;-77
2022/11/02 07:43:31;;;;;;;12.63;3.40;;;;;;;;;;4992565;28;20418;-77
2022/11/02 07:45:57;;;;;;;10.60;2.90;;;;;;;;;;4993246;28;20438;-77
2022/11/02 07:48:23;;;;;;;12.90;3.40;;;;;;;;;;4992736;28;20418;-77
2022/11/02 07:50:49;;;;;;;12.23;3.10;;;;;;;;;;4992555;28;20414;-77
2022/11/02 07:53:15;;;;;;;16.20;3.25;;;;;;;;;;4992445;28;20557;-77
2022/11/02 07:56:05;;;;;;;13.75;3.25;;;;;;;;;;4992028;28;20565;-77
2022/11/02 07:58:31;;;;;;;14.40;3.30;;;;;;;;;;4975833;28;20429;-81
2022/11/02 08:00:58;;;;;;;12.32;3.10;;;;;;;;;;4992389;28;20502;-80
2022/11/02 08:03:24;;;;;;;12.47;3.10;;;;;;;;;;4992488;28;20457;-81
2022/11/02 08:05:50;;;;;;;15.95;3.47;;;;;;;;;;4992032;28;20447;-80
2022/11/02 08:08:20;;;;;;;15.52;3.30;;;;;;;;;;4992116;28;20415;-80
2022/11/02 08:10:47;;;;;;;12.05;3.03;;;;;;;;;;4992391;28;20410;-80
2022/11/02 08:13:15;;;;;;;12.05;2.80;;;;;;;;;;4992689;28;20418;-80
2022/11/02 08:15:41;;;;;;;12.23;3.20;;;;;;;;;;4991133;28;20460;-80
2022/11/02 08:18:07;;;;;;;9.82;2.83;;;;;;;;;;4993217;28;20472;-80
2022/11/02 08:20:34;;;;;;;12.30;3.20;;;;;;;;;;4994921;28;20446;-80
2022/11/02 08:23:00;;;;;;;13.50;3.10;;;;;;;;;;4993819;28;20452;-80
2022/11/02 08:25:26;;;;;;;10.15;2.53;;;;;;;;;;4994652;28;20437;-80
2022/11/02 08:27:55;;;;;;;12.60;3.08;;;;;;;;;;5011285;28;20416;-80
2022/11/02 08:30:21;;;;;;;13.40;2.97;;;;;;;;;;5011398;28;20444;-77
2022/11/02 08:32:47;;;;;;;11.20;3.17;;;;;;;;;;4995505;28;20409;-77
2022/11/02 08:35:13;;;;;;;15.82;3.22;;;;;;;;;;4996032;28;20408;-77
2022/11/02 08:37:39;;;;;;;12.48;3.10;;;;;;;;;;4994930;28;20420;-77
2022/11/02 08:40:06;;;;;;;12.85;3.17;;;;;;;;;;4995028;28;20421;-77
2022/11/02 08:42:32;;;;;;;12.30;2.97;;;;;;;;;;4995571;28;20433;-77
2022/11/02 08:44:58;;;;;;;13.45;3.30;;;;;;;;;;4994761;28;20405;-77
2022/11/02 08:47:24;;;;;;;11.02;3.10;;;;;;;;;;4995857;28;20408;-81
2022/11/02 08:49:50;;;;;;;11.05;3.08;;;;;;;;;;4994655;28;20420;-81
2022/11/02 08:52:17;;;;;;;8.50;2.80;;;;;;;;;;5010957;28;20441;-82
2022/11/02 08:54:43;;;;;;;8.38;2.65;;;;;;;;;;4994428;28;20453;-81
2022/11/02 08:57:09;;;;;;;10.27;2.65;;;;;;;;;;5010739;28;20416;-82
2022/11/02 08:59:35;;;;;;;10.87;2.90;;;;;;;;;;5010629;28;20483;-82
2022/11/02 09:02:01;;;;;;;10.13;2.80;;;;;;;;;;4994320;28;20412;-82
2022/11/02 09:04:27;;;;;;;11.93;2.90;;;;;;;;;;5010938;28;20405;-82
2022/11/02 09:06:53;;;;;;;9.02;2.72;;;;;;;;;;4995465;28;20527;-82
2022/11/02 09:09:19;;;;;;;8.38;2.50;;;;;;;;;;4994711;28;20447;-82
2022/11/02 09:11:45;;;;;;;8.60;2.80;;;;;;;;;;4994206;28;20459;-82
2022/11/02 09:14:11;;;;;;;6.77;2.60;;;;;;;;;;4995165;28;20352;-82
2022/11/02 09:16:37;;;;;;;8.35;2.67;;;;;;;;;;4994292;28;20417;-82
2022/11/02 09:19:03;;;;;;;9.30;2.63;;;;;;;;;;5011557;28;20428;-90
2022/11/02 09:21:29;;;;;;;10.10;3.00;;;;;;;;;;4994626;28;20431;-78
2022/11/02 09:23:55;;;;;;;8.98;2.70;;;;;;;;;;5010573;28;20424;-78
2022/11/02 09:26:21;;;;;;;9.07;3.00;;;;;;;;;;4993918;28;20436;-78
2022/11/02 09:28:47;;;;;;;8.75;3.20;;;;;;;;;;4993923;28;20419;-78
2022/11/02 09:31:13;;;;;;;8.07;2.90;;;;;;;;;;4993416;28;20421;-78
2022/11/02 09:33:39;;;;;;;9.90;2.92;;;;;;;;;;5010397;28;20412;-78
2022/11/02 09:36:06;;;;;;;8.23;2.70;;;;;;;;;;4994018;28;20432;-79
2022/11/02 09:38:32;;;;;;;9.18;3.00;;;;;;;;;;5010710;28;20451;-90
2022/11/02 09:41:01;;;;;;;9.23;3.00;;;;;;;;;;4994668;28;20417;-90
2022/11/02 09:43:27;;;;;;;8.70;2.47;;;;;;;;;;4996123;28;20203;-90
2022/11/02 09:45:53;;;;;;;6.60;2.65;;;;;;;;;;5011660;28;20304;-90
2022/11/02 09:48:22;;;;;;;5.93;2.70;;;;;;;;;;5011100;28;20310;-91
2022/11/02 09:50:51;;;;;;;8.83;2.27;;;;;;;;;;5011318;28;20174;-90
2022/11/02 09:53:23;;;;;;;8.25;2.85;;;;;;;;;;5011125;28;20412;-79
2022/11/02 09:55:52;;;;;;;6.53;2.33;;;;;;;;;;5010655;28;20324;-79
2022/11/02 09:58:21;;;;;;;10.00;2.78;;;;;;;;;;5010508;28;20497;-78
2022/11/02 10:00:47;;;;;;;7.63;2.57;;;;;;;;;;5009639;28;20427;-79
2022/11/02 10:03:32;;;;;;;8.23;2.75;;;;;;;;;;5009720;28;20468;-79
2022/11/02 10:06:04;;;;;;;11.32;3.10;;;;;;;;;;5009591;28;20436;-79
2022/11/02 10:08:38;;;;;;;9.90;2.97;;;;;;;;;;5010329;28;20492;-79
2022/11/02 10:11:04;;;;;;;8.35;2.75;;;;;;;;;;4994925;28;20409;-82
2022/11/02 10:13:59;;;;;;;9.35;2.47;;;;;;;;;;5010060;28;20190;-76
2022/11/02 10:16:30;;;;;;;7.88;2.70;;;;;;;;;;4976012;28;20417;-76
2022/11/02 10:18:56;;;;;;;9.00;2.87;;;;;;;;;;5008997;28;20463;-76
2022/11/02 10:21:48;;;;;;;8.93;2.97;;;;;;;;;;4992851;28;20544;-75
2022/11/02 10:24:23;;;;;;;9.20;2.80;;;;;;;;;;4991991;28;20416;-76
2022/11/02 10:26:50;;;;;;;11.05;2.90;;;;;;;;;;5009868;28;20205;-80
2022/11/02 10:29:18;;;;;;;8.82;3.00;;;;;;;;;;4992799;28;20452;-80
2022/11/02 10:31:45;;;;;;;7.07;2.60;;;;;;;;;;5009169;28;20405;-80
2022/11/02 10:34:24;;;;;;;9.80;3.00;;;;;;;;;;4992883;28;20423;-80
2022/11/02 10:36:59;;;;;;;8.25;2.50;;;;;;;;;;5009766;28;20205;-80
2022/11/02 10:39:32;;;;;;;10.43;2.95;;;;;;;;;;5009147;28;20432;-79
2022/11/02 10:41:59;;;;;;;10.75;2.90;;;;;;;;;;5010699;28;20417;-79
2022/11/02 10:44:43;;;;;;;10.57;3.13;;;;;;;;;;4998299;28;20412;-86
2022/11/02 10:47:12;;;;;;;10.70;2.88;;;;;;;;;;5013003;28;20573;-88
2022/11/02 10:49:44;;;;;;;9.77;2.80;;;;;;;;;;5013066;28;20408;-88
2022/11/02 10:52:13;;;;;;;8.43;2.83;;;;;;;;;;4998019;28;20415;-87
2022/11/02 10:54:39;;;;;;;10.77;3.13;;;;;;;;;;5013146;28;20439;-87
2022/11/02 10:57:12;;;;;;;9.82;3.00;;;;;;;;;;5014199;28;20428;-88
2022/11/02 10:59:39;;;;;;;10.45;3.20;;;;;;;;;;5014261;28;20440;-88
2022/11/02 11:02:10;;;;;;;12.80;2.97;;;;;;;;;;5013788;28;20429;-88
2022/11/02 11:04:37;;;;;;;10.93;2.80;;;;;;;;;;5013382;28;20446;-88
2022/11/02 11:07:08;;;;;;;12.15;3.38;;;;;;;;;;5013125;28;20478;-88
2022/11/02 11:09:53;;;;;;;11.30;3.00;;;;;;;;;;5013157;28;20420;-87
2022/11/02 11:12:30;;;;;;;12.03;3.10;;;;;;;;;;5012810;28;20423;-90
2022/11/02 11:14:56;;;;;;;12.68;3.45;;;;;;;;;;5012812;28;20417;-88
2022/11/02 11:17:32;;;;;;;9.85;2.85;;;;;;;;;;5012492;28;20411;-76
2022/11/02 11:19:58;;;;;;;12.40;3.00;;;;;;;;;;5012302;28;20412;-76
2022/11/02 11:22:27;;;;;;;13.05;3.22;;;;;;;;;;4995952;28;20409;-79
2022/11/02 11:24:54;;;;;;;16.27;3.30;;;;;;;;;;5012249;28;20413;-78
2022/11/02 11:27:23;;;;;;;15.38;3.30;;;;;;;;;;4996890;28;20404;-79
2022/11/02 11:29:56;;;;;;;13.47;2.90;;;;;;;;;;4995871;28;20412;-78
2022/11/02 11:32:27;;;;;;;14.73;3.63;;;;;;;;;;4996780;28;20447;-78
2022/11/02 11:34:57;;;;;;;14.18;3.47;;;;;;;;;;5012126;28;20416;-82
2022/11/02 11:37:24;;;;;;;14.00;3.58;;;;;;;;;;4996702;28;20455;-82
2022/11/02 11:39:53;;;;;;;10.88;3.20;;;;;;;;;;4997124;28;20404;-82
2022/11/02 11:42:20;;;;;;;13.48;3.55;;;;;;;;;;4996606;28;20392;-82
2022/11/02 11:44:50;;;;;;;13.18;3.35;;;;;;;;;;5012049;28;20541;-82
2022/11/02 11:47:16;;;;;;;14.50;3.30;;;;;;;;;;5012078;28;20405;-82
2022/11/02 11:49:48;;;;;;;16.75;3.55;;;;;;;;;;5011667;28;20500;-82
2022/11/02 11:52:18;;;;;;;14.63;3.53;;;;;;;;;;5012148;28;20440;-90
2022/11/02 11:54:52;;;;;;;14.52;3.55;;;;;;;;;;4995674;28;20527;-90
2022/11/02 11:57:23;;;;;;;14.20;3.47;;;;;;;;;;4996671;28;20415;-90
2022/11/02 11:59:51;;;;;;;15.38;3.53;;;;;;;;;;5011627;28;20435;-90
2022/11/02 12:02:23;;;;;;;14.45;3.40;;;;;;;;;;5011774;28;20417;-89
2022/11/02 12:04:50;;;;;;;13.95;3.47;;;;;;;;;;4996317;28;20415;-90
2022/11/02 12:07:34;;;;;;;14.77;3.65;;;;;;;;;;4995118;28;20664;-82
2022/11/02 12:10:23;;;;;;;12.50;3.33;;;;;;;;;;4996300;28;20537;-82
2022/11/02 12:13:00;;;;;;;12.07;3.20;;;;;;;;;;4995150;28;20404;-82
2022/11/02 12:15:46;;;;;;;12.85;3.30;;;;;;;;;;5011426;28;20428;-82
2022/11/02 12:18:21;;;;;;;11.73;3.20;;;;;;;;;;4994394;28;20417;-82
2022/11/02 12:20:50;;;;;;;11.63;3.17;;;;;;;;;;5011641;28;20455;-82
2022/11/02 12:23:40;;;;;;;16.53;3.53;;;;;;;;;;5011615;28;20482;-90
2022/11/02 12:26:14;;;;;;;11.07;3.05;;;;;;;;;;4995944;28;20512;-90
2022/11/02 12:28:44;;;;;;;13.10;3.30;;;;;;;;;;4996252;28;20401;-91
2022/11/02 12:31:39;;;;;;;11.88;2.90;;;;;;;;;;5011399;28;20409;-90
2022/11/02 12:34:11;;;;;;;12.30;2.92;;;;;;;;;;4990666;28;20405;-90
2022/11/02 12:36:44;;;;;;;11.18;3.10;;;;;;;;;;5011848;28;20405;-91
2022/11/02 12:39:34;;;;;;;11.40;2.87;;;;;;;;;;5012335;28;20273;-90
2022/11/02 12:42:19;;;;;;;10.40;2.80;;;;;;;;;;4978817;28;20424;-82
2022/11/02 12:45:03;;;;;;;9.13;2.63;;;;;;;;;;5011079;28;20404;-82
2022/11/02 12:47:35;;;;;;;11.75;2.90;;;;;;;;;;5011694;28;20431;-90
2022/11/02 12:50:22;;;;;;;12.70;3.03;;;;;;;;;;5011838;28;20408;-79
2022/11/02 12:53:07;;;;;;;11.57;2.87;;;;;;;;;;4995818;28;20190;-77
2022/11/02 12:55:40;;;;;;;10.90;2.47;;;;;;;;;;4996080;28;20229;-76
2022/11/02 12:58:07;;;;;;;11.27;2.50;;;;;;;;;;4996057;28;20166;-78
2022/11/02 13:00:36;;;;;;;10.03;2.57;;;;;;;;;;5011129;28;20435;-78
2022/11/02 13:03:05;;;;;;;11.40;2.80;;;;;;;;;;5010842;28;20440;-78
2022/11/02 13:05:38;;;;;;;12.63;3.03;;;;;;;;;;5009125;28;20428;-78
2022/11/02 13:08:17;;;;;;;12.10;2.78;;;;;;;;;;5010609;28;20408;-81
2022/11/02 13:10:57;;;;;;;12.00;2.70;;;;;;;;;;4995781;28;20471;-81
2022/11/02 13:13:28;;;;;;;9.93;2.50;;;;;;;;;;5010087;28;20412;-81
2022/11/02 13:15:54;;;;;;;9.30;3.00;;;;;;;;;;4995844;28;20178;-81
2022/11/02 13:18:26;;;;;;;10.52;2.90;;;;;;;;;;4994055;28;20466;-81
2022/11/02 13:20:55;;;;;;;10.45;2.63;;;;;;;;;;5010111;28;20447;-81
2022/11/02 13:23:30;;;;;;;8.70;2.67;;;;;;;;;;5010500;28;20431;-81
2022/11/02 13:25:59;;;;;;;9.40;2.53;;;;;;;;;;5010910;28;20467;-81
2022/11/02 13:28:32;;;;;;;15.17;2.83;;;;;;;;;;5010831;28;20421;-81
2022/11/02 13:30:58;;;;;;;8.40;2.43;;;;;;;;;;5011034;28;20266;-79
2022/11/02 13:33:33;;;;;;;10.60;2.60;;;;;;;;;;5011117;28;20272;-79
2022/11/02 13:35:59;;;;;;;10.47;2.60;;;;;;;;;;5010973;28;20177;-79
2022/11/02 13:38:31;;;;;;;9.83;2.33;;;;;;;;;;4995764;28;20178;-79
2022/11/02 13:41:13;;;;;;;9.00;2.70;;;;;;;;;;5010100;28;20416;-79
2022/11/02 13:43:42;;;;;;;10.93;2.60;;;;;;;;;;5009948;28;20448;-79
2022/11/02 13:46:15;;;;;;;8.20;2.20;;;;;;;;;;4995058;28;20492;-79
2022/11/02 13:48:47;;;;;;;12.67;2.70;;;;;;;;;;4995803;28;20170;-77
2022/11/02 13:51:20;;;;;;;10.17;2.73;;;;;;;;;;5009948;28;20428;-76
2022/11/02 13:53:51;;;;;;;11.55;2.80;;;;;;;;;;5009866;28;20508;-76
2022/11/02 13:56:23;;;;;;;11.73;2.43;;;;;;;;;;5010838;28;20210;-76
2022/11/02 13:58:54;;;;;;;9.70;2.60;;;;;;;;;;5009961;28;20476;-76
2022/11/02 14:01:21;;;;;;;11.65;2.70;;;;;;;;;;5010507;28;20412;-76
2022/11/02 14:04:10;;;;;;;14.00;3.20;;;;;;;;;;4993769;28;20448;-78
2022/11/02 14:06:45;;;;;;;11.68;2.80;;;;;;;;;;4994322;28;20438;-79
2022/11/02 14:09:18;;;;;;;12.93;3.00;;;;;;;;;;5009530;28;20400;-79
2022/11/02 14:11:44;;;;;;;13.90;3.10;;;;;;;;;;5009748;28;20404;-76
2022/11/02 14:14:10;;;;;;;11.88;3.20;;;;;;;;;;4994276;28;20411;-76
2022/11/02 14:16:45;;;;;;;13.50;3.20;;;;;;;;;;5009215;28;20401;-76
2022/11/02 14:19:17;;;;;;;11.32;2.85;;;;;;;;;;4994160;28;20404;-76
2022/11/02 14:21:59;;;;;;;9.68;3.10;;;;;;;;;;5009894;28;20406;-76
2022/11/02 14:24:37;;;;;;;13.02;3.10;;;;;;;;;;5009464;28;20405;-76
2022/11/02 14:27:17;;;;;;;9.93;3.05;;;;;;;;;;5009415;28;20459;-76
2022/11/02 14:29:43;;;;;;;10.18;2.90;;;;;;;;;;5009575;28;20416;-76
2022/11/02 14:32:19;;;;;;;11.52;2.97;;;;;;;;;;5009996;28;20408;-76
2022/11/02 14:35:03;;;;;;;15.60;3.30;;;;;;;;;;4994537;28;20413;-76
2022/11/02 14:37:29;;;;;;;9.95;2.83;;;;;;;;;;5009324;28;20408;-89
2022/11/02 14:39:58;;;;;;;13.03;2.90;;;;;;;;;;5009691;28;20404;-88
2022/11/02 14:42:42;;;;;;;14.70;3.05;;;;;;;;;;5009708;28;20403;-88
2022/11/02 14:45:26;;;;;;;12.63;3.17;;;;;;;;;;5009122;28;20420;-88
2022/11/02 14:48:02;;;;;;;13.50;3.20;;;;;;;;;;5009834;28;20401;-91
2022/11/02 14:50:28;;;;;;;12.50;2.90;;;;;;;;;;5009638;28;20409;-88
2022/11/02 14:53:00;;;;;;;16.83;3.40;;;;;;;;;;5009597;28;20416;-88
2022/11/02 14:55:34;;;;;;;13.82;3.00;;;;;;;;;;5009327;28;20463;-88
2022/11/02 14:58:01;;;;;;;10.95;3.20;;;;;;;;;;5009669;28;20527;-88
2022/11/02 15:00:46;;;;;;;14.65;2.90;;;;;;;;;;5009285;28;20420;-88
2022/11/02 15:03:24;;;;;;;12.47;2.90;;;;;;;;;;5010507;28;20198;-88
2022/11/02 15:06:06;;;;;;;13.48;3.35;;;;;;;;;;5009538;28;20440;-88